Time;durP1;ratioP1;P1;durP2;ratioP2;P2;SDS_P1;SDS_P2;PMS_P1;PMS_P2;Temp;Humidity;BMP_temperature;BMP_pressure;BME280_temperature;BME280_humidity;BME280_pressure;Samples;Min_cycle;Max_cycle;Signal;HPM_P1;HPM_P2
2022/02/02 00:01:23;;;;;;;9.50;5.60;;;;;;;-0.27;100.00;99108.66;4899150;29;20025;-87
2022/02/02 00:03:53;;;;;;;8.63;4.78;;;;;;;-0.18;100.00;99106.81;4899418;29;20037;-86
2022/02/02 00:06:33;;;;;;;11.88;5.65;;;;;;;-0.15;100.00;99123.16;4899439;29;20025;-86
2022/02/02 00:09:03;;;;;;;10.77;5.57;;;;;;;-0.48;100.00;99072.25;4899499;29;20057;-86
2022/02/02 00:14:15;;;;;;;9.63;5.75;;;;;;;-0.47;100.00;99050.09;4900018;29;20108;-86
2022/02/02 00:19:23;;;;;;;11.70;6.28;;;;;;;-1.02;100.00;98992.88;4899711;29;20040;-87
2022/02/02 00:21:53;;;;;;;8.68;5.72;;;;;;;-0.99;100.00;98985.44;4900112;29;20029;-85
2022/02/02 00:24:54;;;;;;;8.27;6.28;;;;;;;-0.63;100.00;99040.44;4901257;29;20090;-87
2022/02/02 00:27:22;;;;;;;9.70;5.60;;;;;;;-0.83;100.00;99004.84;4898592;29;20041;-86
2022/02/02 00:29:54;;;;;;;9.07;5.70;;;;;;;-0.92;100.00;99016.44;4898318;29;20029;-87
2022/02/02 00:34:51;;;;;;;11.43;6.45;;;;;;;-0.78;100.00;99055.34;4899504;29;20036;-87
2022/02/02 00:37:18;;;;;;;8.52;5.65;;;;;;;-0.80;100.00;99059.94;4899584;29;20065;-87
2022/02/02 00:39:43;;;;;;;9.55;6.00;;;;;;;-0.80;100.00;99059.94;4899582;29;20047;-87
2022/02/02 00:42:09;;;;;;;10.73;6.20;;;;;;;-0.81;100.00;99060.97;4901239;29;20092;-87
2022/02/02 00:44:41;;;;;;;13.35;6.53;;;;;;;-0.16;100.00;99155.88;4900226;29;20032;-87
2022/02/02 00:47:06;;;;;;;9.52;5.35;;;;;;;-0.74;100.00;99051.38;4900196;29;20506;-88
2022/02/02 00:49:32;;;;;;;9.23;5.72;;;;;;;-1.13;100.00;99007.22;4899901;29;20061;-86
2022/02/02 00:51:59;;;;;;;9.40;5.72;;;;;;;-0.96;100.00;99040.53;4899592;29;20120;-87
2022/02/02 00:54:26;;;;;;;12.70;6.00;;;;;;;-0.75;100.00;99084.06;4898510;29;20041;-87
2022/02/02 00:56:52;;;;;;;10.57;5.30;;;;;;;-1.24;100.00;99004.94;4895555;29;20037;-87
2022/02/02 00:59:18;;;;;;;12.57;5.50;;;;;;;-0.12;100.00;99193.38;4880223;29;20005;-87
2022/02/02 01:01:45;;;;;;;9.20;5.07;;;;;;;-1.12;100.00;99019.44;4899323;29;20053;-87
2022/02/02 01:04:11;;;;;;;12.43;5.82;;;;;;;-0.90;100.00;99059.31;4914221;29;20092;-86
2022/02/02 01:06:43;;;;;;;10.65;5.07;;;;;;;-1.15;100.00;99040.91;4901549;29;20025;-87
2022/02/02 01:29:49;;;;;;;9.35;4.90;;;;;;;-1.01;100.00;99143.16;4901011;29;20048;-86
2022/02/02 01:32:14;;;;;;;11.00;4.95;;;;;;;-1.47;100.00;99073.38;4899002;29;20543;-87
2022/02/02 01:34:40;;;;;;;8.18;4.40;;;;;;;-1.35;100.00;99109.03;4900177;29;20065;-87
2022/02/02 01:37:06;;;;;;;7.65;4.35;;;;;;;-1.35;100.00;99122.22;4900130;29;20040;-86
2022/02/02 01:39:33;;;;;;;9.45;4.20;;;;;;;-1.38;100.00;99119.91;4899363;29;20029;-86
2022/02/02 01:42:01;;;;;;;8.88;4.15;;;;;;;-1.06;100.00;99156.03;4900259;29;20044;-87
2022/02/02 01:46:53;;;;;;;5.97;3.40;;;;;;;-1.67;100.00;99078.16;4903975;29;20081;-87
2022/02/02 01:52:23;;;;;;;8.20;3.42;;;;;;;-1.30;100.00;99158.66;4887190;29;20056;-87
2022/02/02 01:54:55;;;;;;;8.82;3.75;;;;;;;-1.65;100.00;99118.38;4903558;29;20181;-86
2022/02/02 02:00:07;;;;;;;5.82;2.92;;;;;;;-1.00;100.00;99210.78;4903975;29;20052;-86
2022/02/02 02:02:35;;;;;;;5.00;3.03;;;;;;;-1.04;100.00;99209.47;4903011;29;20057;-85
2022/02/02 02:05:01;;;;;;;6.18;3.08;;;;;;;-1.19;100.00;99192.66;4902565;29;20032;-86
2022/02/02 02:07:27;;;;;;;7.90;2.90;;;;;;;-0.54;100.00;99314.16;4902256;29;20073;-87
2022/02/02 02:09:54;;;;;;;6.32;2.75;;;;;;;-1.55;100.00;99150.72;4902107;29;20029;-87
2022/02/02 02:12:20;;;;;;;5.43;3.13;;;;;;;-1.25;100.00;99209.13;4917480;29;20028;-86
2022/02/02 02:14:55;;;;;;;6.80;2.60;;;;;;;-1.16;100.00;99204.69;4902664;29;20028;-86
2022/02/02 02:17:23;;;;;;;3.65;2.28;;;;;;;-0.53;100.00;99338.75;4902104;29;20029;-85
2022/02/02 02:19:50;;;;;;;4.03;2.33;;;;;;;-1.10;100.00;99238.34;4900985;29;20019;-85
2022/02/02 02:22:29;;;;;;;5.00;2.20;;;;;;;-1.27;100.00;99219.84;4902723;29;20448;-86
2022/02/02 02:24:55;;;;;;;6.93;2.40;;;;;;;-0.49;100.00;99342.75;4901538;29;20127;-86
2022/02/02 02:27:24;;;;;;;7.35;2.17;;;;;;;-1.38;100.00;99209.59;4908624;29;20029;-86
2022/02/02 02:30:00;;;;;;;5.35;2.00;;;;;;;-0.96;100.00;99278.16;4892866;29;20030;-85
2022/02/02 02:37:40;;;;;;;4.50;2.10;;;;;;;-0.46;100.00;99363.56;4901852;29;20029;-86
2022/02/02 02:56:35;;;;;;;10.60;2.55;;;;;;;-0.95;100.00;99358.19;4883227;29;20119;-87
2022/02/02 02:59:07;;;;;;;4.97;1.90;;;;;;;-0.68;100.00;99396.69;4889231;29;20040;-87
2022/02/02 03:53:42;;;;;;;4.47;1.67;;;;;;;-1.34;100.00;99518.81;4899455;29;20097;-86
2022/02/02 04:02:10;;;;;;;4.88;1.75;;;;;;;-1.82;100.00;99505.09;4899489;29;20404;-86
2022/02/02 04:04:37;;;;;;;3.42;1.60;;;;;;;-1.59;100.00;99550.31;4898128;29;20067;-85
2022/02/02 04:07:07;;;;;;;4.65;1.55;;;;;;;-1.92;100.00;99513.09;4898816;29;20021;-86
2022/02/02 04:09:36;;;;;;;6.88;1.70;;;;;;;-2.14;100.00;99471.34;4882261;29;20041;-86
2022/02/02 04:55:34;;;;;;;5.57;1.52;;;;;;;-1.96;100.00;99616.31;4897347;29;20048;-85
2022/02/02 04:58:14;;;;;;;6.38;1.73;;;;;;;-1.66;100.00;99681.09;4896605;29;20048;-85
2022/02/02 05:05:55;;;;;;;4.85;1.80;;;;;;;-1.28;100.00;99767.09;4898095;29;20073;-84
2022/02/02 05:08:33;;;;;;;4.38;1.50;;;;;;;-2.04;100.00;99645.25;4896687;29;20017;-85
2022/02/02 05:14:28;;;;;;;3.42;1.52;;;;;;;-2.10;100.00;99651.09;4887319;29;20060;-84
2022/02/02 05:50:51;;;;;;;2.85;1.60;;;;;;;-1.64;100.00;99837.41;4901906;29;20138;-85
2022/02/02 05:53:19;;;;;;;5.30;1.80;;;;;;;-1.82;100.00;99804.84;4900328;29;20041;-88
2022/02/02 05:55:45;;;;;;;3.00;1.52;;;;;;;-1.67;100.00;99853.50;4899875;29;20048;-86
2022/02/02 05:58:12;;;;;;;2.35;1.42;;;;;;;-1.08;100.00;99939.41;4898599;29;20053;-84
2022/02/02 06:00:39;;;;;;;5.28;1.80;;;;;;;-1.06;100.00;99937.47;4896730;29;20010;-87
2022/02/02 06:03:14;;;;;;;5.03;1.75;;;;;;;-2.08;100.00;99791.47;4899749;29;20029;-85
2022/02/02 06:05:42;;;;;;;3.90;1.63;;;;;;;-1.62;100.00;99869.75;4899168;29;20017;-86
2022/02/02 06:08:12;;;;;;;4.53;1.63;;;;;;;-1.71;100.00;99860.88;4899282;29;20069;-86
2022/02/02 06:10:39;;;;;;;2.42;1.58;;;;;;;-1.68;100.00;99878.25;4897338;29;20466;-85
2022/02/02 06:13:05;;;;;;;3.47;1.75;;;;;;;-1.90;100.00;99866.19;4896558;29;20025;-86
2022/02/02 06:15:32;;;;;;;2.10;1.50;;;;;;;-1.94;100.00;99889.38;4897871;29;20017;-85
2022/02/02 06:18:00;;;;;;;1.42;1.20;;;;;;;-1.91;100.00;99920.75;4894862;29;20057;-83
2022/02/02 06:20:26;;;;;;;3.08;1.60;;;;;;;-2.13;100.00;99878.88;4897675;29;20049;-83
2022/02/02 06:22:54;;;;;;;2.67;1.38;;;;;;;-1.48;100.00;99993.28;4899293;29;20032;-83
2022/02/02 06:25:28;;;;;;;3.50;1.85;;;;;;;-2.45;100.00;99872.09;4898152;29;20075;-83
2022/02/02 06:28:00;;;;;;;2.97;1.70;;;;;;;-1.42;100.00;100050.78;4897452;29;20044;-83
2022/02/02 06:30:27;;;;;;;5.10;1.95;;;;;;;-2.17;100.00;99951.28;4898997;29;20040;-83
2022/02/02 06:32:57;;;;;;;3.85;1.60;;;;;;;-2.43;100.00;99904.38;4899010;29;20025;-82
2022/02/02 06:35:23;;;;;;;3.15;1.70;;;;;;;-1.99;100.00;99980.41;4906154;29;20039;-83
2022/02/02 06:37:50;;;;;;;3.35;1.50;;;;;;;-1.85;100.00;100029.25;4897070;29;20025;-85
2022/02/02 06:40:17;;;;;;;3.28;1.67;;;;;;;-2.19;100.00;99983.03;4900119;29;20028;-84
2022/02/02 06:42:43;;;;;;;3.05;1.60;;;;;;;-2.08;100.00;100010.25;4897571;29;20093;-83
2022/02/02 06:45:10;;;;;;;4.47;2.03;;;;;;;-2.44;100.00;99958.03;4895902;29;20129;-83
2022/02/02 06:47:38;;;;;;;3.75;1.73;;;;;;;-2.53;100.00;99961.50;4898587;29;20035;-84
2022/02/02 06:50:11;;;;;;;2.58;1.60;;;;;;;-2.09;100.00;100017.31;4896574;29;20032;-83
2022/02/02 06:52:50;;;;;;;3.47;1.80;;;;;;;-2.06;100.00;100058.38;4916207;29;20036;-84
2022/02/02 06:55:31;;;;;;;3.90;1.83;;;;;;;-2.24;100.00;100030.06;4908401;29;20061;-83
2022/02/02 06:58:27;;;;;;;3.40;1.70;;;;;;;-1.88;100.00;100069.09;4903166;29;20047;-84
2022/02/02 07:06:33;;;;;;;3.72;1.90;;;;;;;-2.12;100.00;100072.91;4896285;29;20482;-83
2022/02/02 07:11:55;;;;;;;4.68;1.85;;;;;;;-2.41;100.00;100020.19;4894088;29;20439;-80
2022/02/02 07:14:34;;;;;;;2.75;1.58;;;;;;;-1.54;100.00;100165.31;4892855;29;20039;-84
2022/02/02 07:22:19;;;;;;;5.00;2.20;;;;;;;-1.26;100.00;100220.91;4895777;29;20041;-83
2022/02/02 07:25:18;;;;;;;3.33;1.70;;;;;;;-2.30;100.00;100040.31;4898360;29;20044;-87
2022/02/02 07:27:55;;;;;;;3.58;2.03;;;;;;;-1.33;100.00;100194.22;4895350;29;20017;-86
2022/02/02 07:30:40;;;;;;;3.83;2.05;;;;;;;-2.07;100.00;100088.34;4906104;29;20032;-87
2022/02/02 07:33:13;;;;;;;5.70;1.85;;;;;;;-2.38;100.00;100049.72;4891367;29;20013;-86
2022/02/02 07:35:52;;;;;;;3.75;2.08;;;;;;;-2.14;100.00;100117.03;4899136;29;20049;-86
2022/02/02 07:38:25;;;;;;;3.63;1.85;;;;;;;-2.04;100.00;100136.34;4896695;29;20056;-87
2022/02/02 07:40:52;;;;;;;3.67;1.98;;;;;;;-2.18;100.00;100129.66;4900731;29;20020;-86
2022/02/02 07:43:31;;;;;;;3.50;1.77;;;;;;;-1.84;100.00;100170.69;4897304;29;20036;-85
2022/02/02 07:46:03;;;;;;;2.60;1.45;;;;;;;-2.44;100.00;100070.50;4899983;29;20025;-86
2022/02/02 07:48:37;;;;;;;3.88;1.83;;;;;;;-2.57;100.00;100081.25;4897397;29;20197;-81
2022/02/02 07:51:04;;;;;;;4.35;1.85;;;;;;;-1.36;100.00;100246.47;4900791;29;20066;-82
2022/02/02 07:53:50;;;;;;;2.58;1.50;;;;;;;-1.98;100.00;100162.19;4915339;29;20033;-87
2022/02/02 07:56:20;;;;;;;4.32;1.70;;;;;;;-2.38;100.00;100091.03;4901214;29;20097;-87
2022/02/02 07:58:58;;;;;;;2.83;1.40;;;;;;;-2.38;100.00;100091.88;4895506;29;20439;-83
2022/02/02 08:01:23;;;;;;;2.25;1.30;;;;;;;-1.64;100.00;100211.97;4896609;29;20021;-82
2022/02/02 08:03:54;;;;;;;3.45;1.50;;;;;;;-1.79;100.00;100190.41;4892269;29;20476;-83
2022/02/02 08:06:24;;;;;;;2.95;1.48;;;;;;;-2.29;100.00;100126.28;4897485;29;20032;-85
2022/02/02 08:08:51;;;;;;;3.55;1.35;;;;;;;-2.33;100.00;100140.69;4896644;29;20036;-85
2022/02/02 08:11:28;;;;;;;2.25;1.30;;;;;;;-1.21;100.00;100305.81;4898872;29;20017;-86
2022/02/02 08:13:58;;;;;;;2.95;1.35;;;;;;;-1.92;100.00;100177.47;4903545;29;20028;-84
2022/02/02 08:16:24;;;;;;;1.92;1.13;;;;;;;-1.74;100.00;100209.31;4892926;29;20041;-86
2022/02/02 08:18:52;;;;;;;2.17;1.00;;;;;;;-1.91;100.00;100189.69;4897501;29;20084;-87
2022/02/02 08:21:18;;;;;;;3.55;1.30;;;;;;;-1.06;100.00;100320.31;4895386;29;20093;-88
2022/02/02 08:23:44;;;;;;;2.13;1.00;;;;;;;-2.10;100.00;100167.69;4892732;29;20057;-86
2022/02/02 08:26:14;;;;;;;1.33;0.80;;;;;;;-1.92;100.00;100188.03;4897623;29;20054;-86
2022/02/02 08:28:45;;;;;;;1.80;0.90;;;;;;;-1.63;100.00;100220.72;4897814;29;20021;-87
2022/02/02 08:31:12;;;;;;;2.47;1.67;;;;;;;-1.87;100.00;100163.88;4899877;29;20093;-86
2022/02/02 08:33:40;;;;;;;1.45;0.90;;;;;;;-1.32;100.00;100232.88;4894810;29;20615;-86
2022/02/02 08:36:11;;;;;;;2.85;0.82;;;;;;;-1.30;100.00;100240.63;4897372;29;20028;-88
2022/02/02 08:41:24;;;;;;;1.42;0.80;;;;;;;-0.55;100.00;100373.91;4896757;29;20037;-86
2022/02/02 08:43:59;;;;;;;1.48;0.80;;;;;;;-1.35;100.00;100258.69;4894740;29;20001;-87
2022/02/02 08:46:31;;;;;;;2.03;0.90;;;;;;;-1.22;100.00;100254.84;4899633;29;20037;-87
2022/02/02 08:48:57;;;;;;;1.45;0.90;;;;;;;-1.05;100.00;100282.38;4910750;29;20037;-87
2022/02/02 08:51:29;;;;;;;2.10;1.20;;;;;;;-1.60;100.00;100212.53;4897847;29;20093;-87
2022/02/02 08:57:08;;;;;;;2.35;1.15;;;;;;;-0.48;100.00;100394.34;4901698;29;21648;-86
2022/02/02 08:59:28;;;;;;;2.33;1.08;;;;;;;-1.09;100.00;100303.88;4901645;29;20029;-89
2022/02/02 09:01:57;;;;;;;1.80;1.00;;;;;;;-1.61;100.00;100210.88;4901114;29;20021;-85
2022/02/02 09:07:08;;;;;;;1.50;1.10;;;;;;;-1.37;100.00;100282.56;4900319;29;20036;-84
2022/02/02 09:09:48;;;;;;;1.70;1.20;;;;;;;-1.28;100.00;100275.66;4896366;29;20040;-82
2022/02/02 09:23:25;;;;;;;2.92;1.13;;;;;;;-0.82;100.00;100383.31;4903351;29;20037;-85
2022/02/02 09:31:55;;;;;;;2.33;1.08;;;;;;;-1.06;100.00;100320.31;4903436;29;20040;-85
2022/02/02 09:34:22;;;;;;;1.90;1.02;;;;;;;-0.73;100.00;100365.78;4902059;29;20065;-85
2022/02/02 09:36:49;;;;;;;2.72;0.93;;;;;;;-0.19;100.00;100464.09;4901735;29;20556;-86
2022/02/02 09:39:29;;;;;;;2.08;1.20;;;;;;;-0.22;100.00;100464.38;4900670;29;20082;-85
2022/02/02 09:42:09;;;;;;;2.70;1.05;;;;;;;-0.73;100.00;100376.38;4899942;29;20012;-85
2022/02/02 09:44:39;;;;;;;2.67;1.08;;;;;;;-0.75;100.00;100368.59;4901877;29;20005;-85
2022/02/02 09:47:32;;;;;;;1.30;0.80;;;;;;;-1.15;100.00;100292.09;4895027;29;20024;-83
2022/02/02 09:50:03;;;;;;;2.15;0.88;;;;;;;-0.77;100.00;100374.97;4900169;29;20118;-85
2022/02/02 09:52:37;;;;;;;1.38;0.80;;;;;;;-0.91;99.73;100343.69;4901240;29;20031;-85
2022/02/02 09:55:17;;;;;;;2.38;0.90;;;;;;;-1.05;99.30;100327.25;4900882;29;20036;-85
2022/02/02 09:58:21;;;;;;;2.03;0.70;;;;;;;-0.56;98.58;100394.22;4897001;29;20025;-83
2022/02/02 10:00:59;;;;;;;2.15;0.70;;;;;;;-0.24;97.78;100416.91;4891462;29;20050;-83
2022/02/02 10:05:59;;;;;;;1.35;0.77;;;;;;;0.04;97.84;100464.66;4885055;29;20040;-82
2022/02/02 10:12:07;;;;;;;2.15;0.70;;;;;;;0.09;96.24;100473.00;4886731;29;20025;-82
2022/02/02 10:14:27;;;;;;;1.38;0.80;;;;;;;0.37;97.33;100487.19;4893939;29;20025;-82
2022/02/02 10:16:54;;;;;;;1.02;0.80;;;;;;;0.26;96.51;100482.03;4913650;29;20033;-83
2022/02/02 10:19:28;;;;;;;1.35;0.60;;;;;;;0.19;96.11;100485.25;4898478;29;20066;-82
2022/02/02 10:21:55;;;;;;;1.00;0.80;;;;;;;0.30;95.86;100499.28;4909183;29;20036;-82
2022/02/02 10:24:44;;;;;;;0.80;0.63;;;;;;;0.39;96.40;100504.59;4896626;29;20041;-82
2022/02/02 10:27:23;;;;;;;0.93;0.70;;;;;;;0.38;95.52;100505.56;4889678;29;20025;-83
2022/02/02 10:29:49;;;;;;;1.13;0.63;;;;;;;0.37;95.58;100503.06;4888250;29;20033;-84
2022/02/02 10:32:35;;;;;;;0.85;0.60;;;;;;;0.28;94.55;100494.16;4878783;29;20194;-84
2022/02/02 10:35:03;;;;;;;1.20;0.80;;;;;;;0.37;95.84;100516.31;4899693;29;20035;-84
2022/02/02 10:37:30;;;;;;;1.55;0.65;;;;;;;0.47;95.74;100515.31;4896569;29;20029;-83
2022/02/02 10:39:56;;;;;;;3.53;0.90;;;;;;;0.46;95.32;100503.06;4865773;29;20048;-83
2022/02/02 10:42:41;;;;;;;1.42;0.90;;;;;;;0.35;94.85;100497.91;4897906;29;20033;-85
2022/02/02 10:45:25;;;;;;;1.25;0.73;;;;;;;0.31;93.91;100525.63;4883332;29;20062;-84
2022/02/02 10:48:01;;;;;;;1.65;0.88;;;;;;;0.29;93.70;100522.28;4893502;29;20022;-84
2022/02/02 10:50:39;;;;;;;0.98;0.68;;;;;;;0.56;94.05;100534.81;4899336;29;20057;-84
2022/02/02 10:53:30;;;;;;;3.30;0.90;;;;;;;0.73;93.61;100545.66;4868856;29;20028;-83
2022/02/02 10:59:57;;;;;;;1.40;0.80;;;;;;;0.82;93.13;100556.22;4894623;29;20073;-84
2022/02/02 11:06:47;;;;;;;1.48;0.90;;;;;;;0.77;93.63;100552.34;4895979;29;20048;-86
2022/02/02 11:09:15;;;;;;;1.58;0.82;;;;;;;0.75;93.35;100551.66;4882845;29;20029;-84
2022/02/02 11:11:42;;;;;;;1.73;1.05;;;;;;;0.67;93.52;100592.09;4898338;29;20029;-86
2022/02/02 11:14:36;;;;;;;1.42;1.10;;;;;;;0.64;93.22;100587.06;4901071;29;20116;-87
2022/02/02 11:17:10;;;;;;;2.70;0.90;;;;;;;0.73;93.11;100577.44;4913255;29;20097;-83
2022/02/02 11:19:38;;;;;;;1.42;1.10;;;;;;;0.52;93.97;100556.41;4898374;29;20036;-83
2022/02/02 11:22:19;;;;;;;1.75;0.90;;;;;;;0.57;93.25;100578.03;4920010;29;20033;-85
2022/02/02 11:24:44;;;;;;;1.60;1.10;;;;;;;0.55;93.64;100548.19;4903315;29;20128;-86
2022/02/02 11:27:32;;;;;;;1.67;1.00;;;;;;;0.66;92.84;100567.44;4897871;29;20044;-84
2022/02/02 11:29:58;;;;;;;2.80;1.05;;;;;;;0.69;93.41;100561.81;4912441;29;20076;-86
2022/02/02 11:32:37;;;;;;;2.05;1.10;;;;;;;0.66;92.85;100553.31;4896138;29;20041;-83
2022/02/02 11:35:54;;;;;;;1.75;0.98;;;;;;;0.82;93.08;100579.25;4889741;29;20037;-86
2022/02/02 11:38:35;;;;;;;1.52;0.93;;;;;;;0.70;93.28;100589.16;4891786;29;20041;-85
2022/02/02 11:41:40;;;;;;;1.73;1.17;;;;;;;0.81;92.73;100604.91;4890913;29;20029;-85
2022/02/02 11:44:27;;;;;;;1.30;0.80;;;;;;;0.84;92.90;100603.78;4891025;29;20049;-85
2022/02/02 11:49:55;;;;;;;2.55;1.00;;;;;;;1.01;92.37;100612.81;4889784;29;20123;-83
2022/02/02 11:52:38;;;;;;;1.80;1.08;;;;;;;0.80;93.15;100600.59;4880254;29;20534;-83
2022/02/02 11:58:08;;;;;;;2.33;1.08;;;;;;;0.00;92.62;100469.41;5207875;23;20059;-87
2022/02/02 12:06:00;;;;;;;2.13;1.20;;;;;;;0.36;92.55;100525.22;5031103;23;20072;-87
2022/02/02 12:08:59;;;;;;;2.53;1.25;;;;;;;0.42;92.51;100527.28;5324456;23;20069;-87
2022/02/02 12:47:44;;;;;;;1.10;0.88;;;;;;;0.90;89.23;100532.53;4966716;23;20036;-87
2022/02/02 13:03:12;;;;;;;1.23;0.70;;;;;;;0.55;89.24;100519.91;5724412;23;21235;-82
2022/02/02 13:05:43;;;;;;;1.70;1.00;;;;;;;0.76;88.13;100535.59;5705641;23;20019;-77
2022/02/02 13:21:30;;;;;;;2.78;1.73;;;;;;;2.03;88.80;100711.91;5896433;23;20031;31
2022/02/02 13:24:13;;;;;;;1.30;0.77;;;;;;;1.51;89.05;100642.53;4947123;29;20064;-85
2022/02/02 13:32:20;;;;;;;2.25;0.85;;;;;;;1.21;88.90;100577.34;5185871;23;20060;-87
2022/02/02 13:35:05;;;;;;;1.90;1.05;;;;;;;1.15;89.10;100577.91;4990073;23;20060;-88
2022/02/02 13:37:54;;;;;;;1.38;0.80;;;;;;;1.24;89.66;100594.78;4920081;29;20048;-87
2022/02/02 14:04:12;;;;;;;1.52;1.10;;;;;;;1.36;90.33;100628.94;4941275;29;20060;-87
2022/02/02 14:33:11;;;;;;;2.35;1.60;;;;;;;0.92;92.30;100647.13;4923622;29;20311;-87
2022/02/02 14:35:37;;;;;;;2.08;1.30;;;;;;;0.96;92.47;100663.59;4920029;29;20028;-86
2022/02/02 14:38:04;;;;;;;2.97;1.70;;;;;;;1.02;93.11;100688.66;4920258;29;20031;-85
2022/02/02 14:45:46;;;;;;;1.98;1.30;;;;;;;0.38;94.33;100652.97;5164889;23;20059;-87
2022/02/02 14:48:22;;;;;;;2.05;1.27;;;;;;;0.33;94.56;100669.25;5688816;23;20053;-87
2022/02/02 14:51:00;;;;;;;2.80;1.20;;;;;;;-0.19;95.04;100610.34;4914349;29;20044;-87
2022/02/02 14:53:35;;;;;;;2.38;1.30;;;;;;;0.74;95.48;100770.63;4924838;29;20024;-85
2022/02/02 15:07:10;;;;;;;2.08;1.65;;;;;;;-0.62;96.69;100653.72;5093024;28;20097;-87
2022/02/02 15:32:55;;;;;;;2.45;1.50;;;;;;;-0.70;98.28;100777.69;5461149;22;20027;-82
2022/02/02 15:35:22;;;;;;;2.53;1.50;;;;;;;-1.94;98.69;100593.38;5113450;28;20028;-85
2022/02/02 15:40:18;;;;;;;3.30;1.73;;;;;;;-0.80;98.81;100782.06;5110633;28;20013;-85
2022/02/02 15:58:58;;;;;;;7.10;1.52;;;;;;;-1.33;100.00;100753.78;5105449;28;20099;-82
2022/02/02 16:03:58;;;;;;;2.47;1.50;;;;;;;-1.02;100.00;100819.97;5108355;28;20055;-83
2022/02/02 16:06:26;;;;;;;4.75;1.60;;;;;;;-1.11;100.00;100815.44;5109783;28;20177;-86
2022/02/02 16:11:30;;;;;;;3.40;1.40;;;;;;;-1.95;100.00;100722.72;5159777;22;20087;-86
2022/02/02 16:14:05;;;;;;;4.22;1.73;;;;;;;-1.81;100.00;100748.81;5257684;22;20088;-87
2022/02/02 16:19:02;;;;;;;1.65;1.30;;;;;;;-2.11;100.00;100712.53;5060441;28;20041;-87
2022/02/02 16:38:01;;;;;;;5.63;1.88;;;;;;;-2.21;100.00;100727.38;5028143;22;21580;-79
2022/02/02 16:40:37;;;;;;;2.30;1.33;;;;;;;-2.70;100.00;100652.09;5008748;28;20069;-83
2022/02/02 16:45:33;;;;;;;3.97;1.70;;;;;;;-2.12;100.00;100766.19;5009139;28;20458;-79
2022/02/02 16:48:00;;;;;;;6.90;1.52;;;;;;;-2.21;100.00;100751.94;5009502;28;20034;-85
2022/02/02 16:50:30;;;;;;;2.38;1.55;;;;;;;-2.17;100.00;100771.81;5010831;28;20065;-81
2022/02/02 16:53:00;;;;;;;2.10;1.40;;;;;;;-2.55;100.00;100697.50;5011384;28;20050;-82
2022/02/02 16:55:35;;;;;;;3.72;1.15;;;;;;;-2.41;100.00;100742.09;5005728;28;20026;-83
2022/02/02 17:32:58;;;;;;;6.07;2.30;;;;;;;-1.83;100.00;100778.91;5012312;28;20038;-82
2022/02/02 17:35:35;;;;;;;2.38;1.90;;;;;;;-2.00;100.00;100756.50;5010854;28;20037;-82
2022/02/02 17:38:14;;;;;;;3.30;1.60;;;;;;;-2.09;100.00;100744.03;5009245;28;20054;-82
2022/02/02 17:46:05;;;;;;;2.95;1.95;;;;;;;-2.41;100.00;100687.59;5006832;28;20065;-82
2022/02/02 18:13:34;;;;;;;4.53;1.98;;;;;;;-1.14;100.00;100871.13;4994573;28;20041;-81
2022/02/02 18:20:54;;;;;;;4.88;2.25;;;;;;;-1.09;100.00;100869.81;5008090;28;20050;-82
2022/02/02 18:24:09;;;;;;;7.28;2.08;;;;;;;-0.95;100.00;100871.34;4997282;28;20030;-82
2022/02/02 18:26:33;;;;;;;10.60;8.00;;;;;;;-0.95;100.00;100874.81;5002209;28;20038;-81
2022/02/02 18:31:54;;;;;;;7.95;3.80;;;;;;;-0.90;100.00;100863.03;4995430;28;20093;-82
2022/02/02 18:34:34;;;;;;;4.55;2.90;;;;;;;-0.95;100.00;100848.41;5006725;28;20120;-81
2022/02/02 18:55:17;;;;;;;15.38;8.85;;;;;;;-0.77;100.00;100858.44;5005519;28;20026;-81
2022/02/02 19:08:00;;;;;;;;;;;;;;;-0.61;100.00;100868.59;4983531;28;20077;-81
2022/02/02 19:15:13;;;;;;;9.52;2.25;;;;;;;-1.67;100.00;100681.78;4983090;28;20031;-85
2022/02/02 19:39:02;;;;;;;8.40;1.30;;;;;;;-0.60;100.00;100680.84;4993535;28;20110;-85
2022/02/02 20:06:01;;;;;;;9.52;1.33;;;;;;;0.29;100.00;100844.31;4959584;29;20038;-80
2022/02/02 20:08:45;;;;;;;11.00;1.55;;;;;;;0.38;100.00;100862.91;4963496;28;20360;-82
2022/02/02 20:11:17;;;;;;;5.70;0.88;;;;;;;0.40;100.00;100863.63;4966937;28;20042;-81
2022/02/02 20:13:43;;;;;;;6.93;0.98;;;;;;;0.50;100.00;100873.38;4982612;28;20022;-82
2022/02/02 20:16:08;;;;;;;7.15;0.90;;;;;;;0.57;100.00;100882.50;4983050;28;20078;-78
2022/02/02 20:18:39;;;;;;;8.52;1.10;;;;;;;0.54;100.00;100873.00;4978348;28;20026;-80
2022/02/02 20:21:08;;;;;;;6.57;0.95;;;;;;;0.60;100.00;100880.44;4980326;28;20027;-82
2022/02/02 20:23:39;;;;;;;17.08;1.35;;;;;;;0.61;100.00;100870.66;4979338;28;20031;-80
2022/02/02 20:26:06;;;;;;;10.73;0.93;;;;;;;0.74;100.00;100881.88;4983375;28;20031;-81
2022/02/02 20:28:32;;;;;;;8.57;1.05;;;;;;;0.46;100.00;100831.31;4971191;28;20054;-83
2022/02/02 20:30:57;;;;;;;13.90;1.10;;;;;;;0.72;100.00;100867.91;4997395;28;20042;-81
2022/02/02 20:33:23;;;;;;;5.90;1.20;;;;;;;0.87;100.00;100879.00;4980698;28;20038;-81
2022/02/02 20:35:48;;;;;;;6.45;0.80;;;;;;;0.84;100.00;100874.78;4978938;28;20022;-80
2022/02/02 20:38:14;;;;;;;9.40;1.35;;;;;;;0.86;100.00;100870.22;4999490;28;20049;-81
2022/02/02 20:40:39;;;;;;;7.95;1.13;;;;;;;0.85;100.00;100871.16;4983920;28;20062;-81
2022/02/02 20:43:09;;;;;;;11.63;0.98;;;;;;;0.99;100.00;100882.38;4985457;28;20399;-81
2022/02/02 20:46:02;;;;;;;9.55;1.02;;;;;;;0.80;100.00;100848.72;5001744;28;20030;-80
2022/02/02 21:05:07;;;;;;;11.52;1.08;;;;;;;1.17;100.00;100888.69;4977170;28;20117;-79
2022/02/02 21:10:10;;;;;;;12.85;1.50;;;;;;;1.25;100.00;100891.50;4976397;28;20034;-80
2022/02/02 21:15:25;;;;;;;12.18;1.42;;;;;;;1.30;100.00;100893.75;5001019;28;20049;-85
2022/02/02 21:17:53;;;;;;;10.60;1.30;;;;;;;1.32;100.00;100892.63;4992412;28;20022;-84
2022/02/02 21:20:24;;;;;;;12.10;1.38;;;;;;;1.37;100.00;100885.09;5008744;28;20031;-84
2022/02/02 21:23:06;;;;;;;13.10;1.35;;;;;;;1.36;100.00;100875.47;4991429;28;20034;-84
2022/02/02 21:27:57;;;;;;;18.83;1.70;;;;;;;1.45;100.00;100879.09;4991175;28;20081;-83
2022/02/02 21:30:24;;;;;;;8.07;1.27;;;;;;;1.51;100.00;100877.72;4992623;28;20099;-83
2022/02/02 21:32:50;;;;;;;12.60;1.42;;;;;;;1.54;100.00;100869.50;4987662;28;20035;-82
2022/02/02 21:35:17;;;;;;;20.17;3.50;;;;;;;1.65;100.00;100878.13;4990529;28;20022;-83
2022/02/02 21:37:45;;;;;;;13.60;1.52;;;;;;;1.67;100.00;100879.81;4993928;28;20058;-85
2022/02/02 21:40:21;;;;;;;10.68;1.40;;;;;;;1.67;100.00;100872.69;4995033;28;20030;-84
2022/02/02 21:42:48;;;;;;;11.93;1.65;;;;;;;1.74;100.00;100873.81;4992218;28;20042;-83
2022/02/02 21:45:14;;;;;;;14.43;1.90;;;;;;;1.84;100.00;100893.22;4988152;28;20034;-82
2022/02/02 21:50:18;;;;;;;16.85;1.65;;;;;;;1.01;100.00;100742.66;2868374;22;20054;-86
2022/02/02 21:52:45;;;;;;;11.60;1.70;;;;;;;1.96;100.00;100879.81;5055542;28;20021;-83
2022/02/02 21:55:11;;;;;;;9.05;1.20;;;;;;;1.81;100.00;100845.72;5065597;22;20095;-85
2022/02/02 21:57:38;;;;;;;14.88;1.30;;;;;;;1.50;100.00;100793.84;5052706;28;20057;-85
2022/02/02 22:00:06;;;;;;;17.48;1.60;;;;;;;1.51;100.00;100796.34;5054760;28;20055;-86
2022/02/02 22:02:34;;;;;;;14.13;1.58;;;;;;;1.67;100.00;100809.03;5055333;28;20033;-87
2022/02/02 22:05:02;;;;;;;13.40;1.50;;;;;;;1.31;100.00;100731.91;5044585;28;20037;-88
2022/02/02 22:07:28;;;;;;;16.02;1.73;;;;;;;1.45;100.00;100764.25;5057312;28;20029;-85
2022/02/02 22:09:59;;;;;;;12.77;1.58;;;;;;;1.72;100.00;100790.03;5050282;28;20059;-87
2022/02/02 22:12:25;;;;;;;10.18;1.50;;;;;;;1.71;100.00;100767.16;5046770;28;20037;-86
2022/02/02 22:14:52;;;;;;;22.52;1.70;;;;;;;2.20;100.00;100848.31;5052053;28;20026;-87
2022/02/02 22:17:20;;;;;;;10.15;1.40;;;;;;;1.54;100.00;100752.81;5047380;28;20020;-87
2022/02/02 22:19:52;;;;;;;8.65;1.20;;;;;;;1.52;100.00;100738.84;5047762;28;20049;-87
2022/02/02 22:22:18;;;;;;;15.35;1.35;;;;;;;1.81;100.00;100786.53;5053323;28;20048;-86
2022/02/02 22:24:44;;;;;;;12.63;1.42;;;;;;;2.36;100.00;100887.56;5051184;28;20025;-86
2022/02/02 22:27:10;;;;;;;13.40;1.65;;;;;;;1.51;100.00;100750.44;5048307;28;20018;-88
2022/02/02 22:29:36;;;;;;;13.20;1.60;;;;;;;1.70;100.00;100781.41;5048298;28;20444;-87
2022/02/02 22:32:02;;;;;;;22.13;1.98;;;;;;;2.34;100.00;100879.72;5048050;28;20037;-86
2022/02/02 22:34:28;;;;;;;7.38;1.08;;;;;;;1.59;100.00;100756.72;5041149;28;20101;-87